createdAt,value
2018-12-21T00:00:20.531Z,90.00
2018-12-21T00:02:48.868Z,89.30
2018-12-21T00:05:17.111Z,89.00
2018-12-21T00:07:45.257Z,88.60
2018-12-21T00:10:13.595Z,88.20
2018-12-21T00:12:41.777Z,88.10
2018-12-21T00:15:10.049Z,87.60
2018-12-21T00:17:38.202Z,86.90
2018-12-21T00:20:08.539Z,86.50
2018-12-21T00:22:36.704Z,86.70
2018-12-21T00:25:05.706Z,86.30
2018-12-21T00:27:34.243Z,86.00
2018-12-21T00:30:02.984Z,85.90
2018-12-21T00:32:36.840Z,86.20
2018-12-21T00:35:10.683Z,86.70
2018-12-21T00:37:44.472Z,87.20
2018-12-21T00:40:18.171Z,87.70
2018-12-21T00:43:49.687Z,88.20
2018-12-21T00:46:24.159Z,88.60
2018-12-21T00:48:53.432Z,88.40
2018-12-21T00:51:29.975Z,88.40
2018-12-21T00:53:51.733Z,87.80
2018-12-21T00:56:20.096Z,88.00
2018-12-21T00:58:48.256Z,88.00
2018-12-21T01:01:16.610Z,87.80
2018-12-21T01:03:44.901Z,87.60
2018-12-21T01:06:13.240Z,87.80
2018-12-21T01:08:41.471Z,88.30
2018-12-21T01:11:09.727Z,88.40
2018-12-21T01:13:39.596Z,88.40
2018-12-21T01:16:07.974Z,88.90
2018-12-21T01:18:36.129Z,89.30
2018-12-21T01:21:04.385Z,89.50
2018-12-21T01:23:32.608Z,89.70
2018-12-21T01:26:00.821Z,90.00
2018-12-21T01:28:29.077Z,90.00
2018-12-21T01:30:57.309Z,90.00
2018-12-21T01:33:25.469Z,90.00
2018-12-21T01:35:53.733Z,90.20
2018-12-21T01:38:22.328Z,90.10
2018-12-21T01:40:50.495Z,90.00
2018-12-21T01:43:18.761Z,90.30
2018-12-21T01:45:47.117Z,90.60
2018-12-21T01:48:15.373Z,90.10
2018-12-21T01:50:43.616Z,89.70
2018-12-21T01:53:11.765Z,89.00
2018-12-21T01:55:40.010Z,88.90
2018-12-21T01:58:08.238Z,89.10
2018-12-21T02:00:36.568Z,88.60
2018-12-21T02:03:04.790Z,88.40
2018-12-21T02:05:32.951Z,88.20
2018-12-21T02:08:01.221Z,88.60
2018-12-21T02:10:29.383Z,88.00
2018-12-21T02:12:57.531Z,87.80
2018-12-21T02:15:25.697Z,87.70
2018-12-21T02:17:53.842Z,87.70
2018-12-21T02:20:22.076Z,87.20
2018-12-21T02:22:50.219Z,87.30
2018-12-21T02:25:18.492Z,87.40
2018-12-21T02:27:46.603Z,87.40
2018-12-21T02:30:14.785Z,87.30
2018-12-21T02:32:43.018Z,87.30
2018-12-21T02:35:11.199Z,87.70
2018-12-21T02:37:39.496Z,87.70
2018-12-21T02:40:07.836Z,88.50
2018-12-21T02:42:36.081Z,88.30
2018-12-21T02:45:05.119Z,88.50
2018-12-21T02:47:33.444Z,89.40
2018-12-21T02:50:01.617Z,89.50
2018-12-21T02:52:29.860Z,90.00
2018-12-21T02:54:58.089Z,90.10
2018-12-21T02:57:26.244Z,90.20
2018-12-21T02:59:54.500Z,90.30
2018-12-21T03:02:22.735Z,90.30
2018-12-21T03:04:50.932Z,90.60
2018-12-21T03:07:19.152Z,90.30
2018-12-21T03:09:47.321Z,90.10
2018-12-21T03:12:15.456Z,90.00
2018-12-21T03:14:43.625Z,89.20
2018-12-21T03:17:11.779Z,88.60
2018-12-21T03:19:39.975Z,88.00
2018-12-21T03:22:14.689Z,88.00
2018-12-21T03:24:38.452Z,88.10
2018-12-21T03:27:06.632Z,87.80
2018-12-21T03:29:34.778Z,87.40
2018-12-21T03:32:02.940Z,87.20
2018-12-21T03:34:31.119Z,87.60
2018-12-21T03:36:59.351Z,88.00
2018-12-21T03:39:27.552Z,87.40
2018-12-21T03:41:55.830Z,87.40
2018-12-21T03:44:24.116Z,87.30
2018-12-21T03:46:52.394Z,88.10
2018-12-21T03:49:20.544Z,88.00
2018-12-21T03:51:48.706Z,88.00
2018-12-21T03:54:17.067Z,87.90
2018-12-21T03:56:45.225Z,87.80
2018-12-21T03:59:13.436Z,88.10
2018-12-21T04:01:41.649Z,88.10
2018-12-21T04:04:09.771Z,88.90
2018-12-21T04:06:38.118Z,88.10
2018-12-21T04:09:06.834Z,88.50
2018-12-21T04:11:35.003Z,89.30
2018-12-21T04:14:03.312Z,89.20
2018-12-21T04:16:31.547Z,89.80
2018-12-21T04:18:59.729Z,89.40
2018-12-21T04:21:27.885Z,88.40
2018-12-21T04:23:56.033Z,88.40
2018-12-21T04:26:24.437Z,86.90
2018-12-21T04:28:52.586Z,86.50
2018-12-21T04:31:22.151Z,86.10
2018-12-21T04:33:50.289Z,86.00
2018-12-21T04:36:18.521Z,85.80
2018-12-21T04:38:46.647Z,85.70
2018-12-21T04:41:14.844Z,85.20
2018-12-21T04:43:43.278Z,84.60
2018-12-21T04:46:11.431Z,84.40
2018-12-21T04:48:39.593Z,84.30
2018-12-21T04:51:07.838Z,84.20
2018-12-21T04:53:35.983Z,84.50
2018-12-21T04:56:04.316Z,84.00
2018-12-21T04:58:32.475Z,84.10
2018-12-21T05:01:00.710Z,84.10
2018-12-21T05:03:28.834Z,84.40
2018-12-21T05:05:56.991Z,84.40
2018-12-21T05:08:25.159Z,84.30
2018-12-21T05:10:53.305Z,84.60
2018-12-21T05:13:21.475Z,84.20
2018-12-21T05:15:49.701Z,83.80
2018-12-21T05:18:17.832Z,83.50
2018-12-21T05:20:46.066Z,83.50
2018-12-21T05:23:14.216Z,83.00
2018-12-21T05:25:42.396Z,82.60
2018-12-21T05:28:10.703Z,81.90
2018-12-21T05:30:38.933Z,81.30
2018-12-21T05:33:07.228Z,81.30
2018-12-21T05:35:35.440Z,80.80
2018-12-21T05:38:03.707Z,80.70
2018-12-21T05:40:31.888Z,80.30
2018-12-21T05:43:00.044Z,80.50
2018-12-21T05:45:28.249Z,80.60
2018-12-21T05:47:56.435Z,80.20
2018-12-21T05:50:24.600Z,80.10
2018-12-21T05:53:00.612Z,80.00
2018-12-21T05:55:23.066Z,79.10
2018-12-21T05:57:51.802Z,78.40
2018-12-21T06:00:20.130Z,77.90
2018-12-21T06:02:48.779Z,78.00
2018-12-21T06:05:16.998Z,78.40
2018-12-21T06:07:46.096Z,78.20
2018-12-21T06:10:15.551Z,77.90
2018-12-21T06:12:44.003Z,77.80
2018-12-21T06:15:12.273Z,79.00
2018-12-21T06:17:40.436Z,78.10
2018-12-21T06:20:08.730Z,78.00
2018-12-21T06:22:36.861Z,78.50
2018-12-21T06:25:05.657Z,79.00
2018-12-21T06:27:33.863Z,78.90
2018-12-21T06:30:02.108Z,79.10
2018-12-21T06:32:30.480Z,79.80
2018-12-21T06:34:58.700Z,80.20
2018-12-21T06:37:27.263Z,80.60
2018-12-21T06:39:55.424Z,81.00
2018-12-21T06:42:23.584Z,82.20
2018-12-21T06:44:51.747Z,82.90
2018-12-21T06:47:19.900Z,83.50
2018-12-21T06:49:48.048Z,83.80
2018-12-21T06:52:16.268Z,84.60
2018-12-21T06:54:44.633Z,85.40
2018-12-21T06:57:12.796Z,86.30
2018-12-21T06:59:41.300Z,87.90
2018-12-21T07:02:09.554Z,89.20
2018-12-21T07:04:37.738Z,89.60
2018-12-21T07:07:05.916Z,90.70
2018-12-21T07:09:34.056Z,90.60
2018-12-21T07:12:02.216Z,90.90
2018-12-21T07:14:30.381Z,91.00
2018-12-21T07:16:58.522Z,91.50
2018-12-21T07:19:26.695Z,92.00
2018-12-21T07:21:54.851Z,92.10
2018-12-21T07:24:22.975Z,92.20
2018-12-21T07:26:51.223Z,92.40
2018-12-21T07:29:20.754Z,92.20
2018-12-21T07:31:49.007Z,92.50
2018-12-21T07:34:17.225Z,92.20
2018-12-21T07:36:45.395Z,92.40
2018-12-21T07:39:13.555Z,92.60
2018-12-21T07:41:41.980Z,92.60
2018-12-21T07:44:10.227Z,92.50
2018-12-21T07:46:38.385Z,92.90
2018-12-21T07:49:06.626Z,92.70
2018-12-21T07:51:34.884Z,93.10
2018-12-21T07:54:03.032Z,93.20
2018-12-21T07:56:31.175Z,93.60
2018-12-21T07:58:59.304Z,93.60
2018-12-21T08:01:27.452Z,93.80
2018-12-21T08:03:55.653Z,93.90
2018-12-21T08:06:23.811Z,94.10
2018-12-21T08:08:51.964Z,94.10
2018-12-21T08:11:20.129Z,94.10
2018-12-21T08:13:48.288Z,93.90
2018-12-21T08:16:16.520Z,94.20
2018-12-21T08:18:44.679Z,93.90
2018-12-21T08:21:12.848Z,94.20
2018-12-21T08:23:44.409Z,93.90
2018-12-21T08:26:11.144Z,93.70
2018-12-21T08:31:11.216Z,93.80
2018-12-21T08:33:39.562Z,93.70
2018-12-21T08:36:07.862Z,93.80
2018-12-21T08:38:36.111Z,93.60
2018-12-21T08:41:04.349Z,93.80
2018-12-21T08:43:32.692Z,93.80
2018-12-21T08:46:00.822Z,94.10
2018-12-21T08:48:28.996Z,93.80
2018-12-21T08:50:57.136Z,93.60
2018-12-21T08:53:25.277Z,93.60
2018-12-21T08:55:53.409Z,93.70
2018-12-21T08:58:21.539Z,93.70
2018-12-21T09:00:49.665Z,93.90
2018-12-21T09:03:17.795Z,94.20
2018-12-21T09:05:46.869Z,94.30
2018-12-21T09:08:15.021Z,94.10
2018-12-21T09:10:43.152Z,93.70
2018-12-21T09:13:11.452Z,93.70
2018-12-21T09:15:39.619Z,93.70
2018-12-21T09:18:07.743Z,93.80
2018-12-21T09:20:35.871Z,93.50
2018-12-21T09:23:04.107Z,93.60
2018-12-21T09:25:32.304Z,93.60
2018-12-21T09:28:00.465Z,93.60
2018-12-21T09:30:28.660Z,93.60
2018-12-21T09:32:56.908Z,93.40
2018-12-21T09:35:25.167Z,93.60
2018-12-21T09:37:53.419Z,93.20
2018-12-21T09:40:21.560Z,93.30
2018-12-21T09:42:49.797Z,93.60
2018-12-21T09:45:17.937Z,93.60
2018-12-21T09:47:46.083Z,93.60
2018-12-21T09:50:14.286Z,93.70
2018-12-21T09:52:42.434Z,93.70
2018-12-21T09:55:10.567Z,93.70
2018-12-21T09:57:38.720Z,93.80
2018-12-21T10:00:10.003Z,94.10
2018-12-21T10:02:38.180Z,94.00
2018-12-21T10:05:08.533Z,93.90
2018-12-21T10:07:36.677Z,93.80
2018-12-21T10:10:05.340Z,93.60
2018-12-21T10:12:33.515Z,93.70
2018-12-21T10:15:01.751Z,93.90
2018-12-21T10:17:29.899Z,93.40
2018-12-21T10:19:58.051Z,93.40
2018-12-21T10:22:26.195Z,93.20
2018-12-21T10:24:54.357Z,93.00
2018-12-21T10:27:22.595Z,93.10
2018-12-21T10:29:50.732Z,93.10
2018-12-21T10:32:18.884Z,93.20
2018-12-21T10:34:47.459Z,93.40
2018-12-21T10:37:16.795Z,93.60
2018-12-21T10:39:45.064Z,93.10
2018-12-21T10:42:13.215Z,93.00
2018-12-21T10:44:41.532Z,93.10
2018-12-21T10:47:09.691Z,93.30
2018-12-21T10:49:37.908Z,92.90
2018-12-21T10:52:06.168Z,92.50
2018-12-21T10:54:34.367Z,92.30
2018-12-21T10:57:02.692Z,92.30
2018-12-21T10:59:30.944Z,92.50
2018-12-21T11:01:59.215Z,92.30
2018-12-21T11:04:27.617Z,91.70
2018-12-21T11:06:55.896Z,91.80
2018-12-21T11:09:24.065Z,91.90
2018-12-21T11:11:52.225Z,91.90
2018-12-21T11:14:20.384Z,91.60
2018-12-21T11:16:48.543Z,91.70
2018-12-21T11:19:16.725Z,91.70
2018-12-21T11:21:44.947Z,91.50
2018-12-21T11:24:13.608Z,91.40
2018-12-21T11:26:41.841Z,91.30
2018-12-21T11:29:10.035Z,91.60
2018-12-21T11:31:38.227Z,91.20
2018-12-21T11:34:06.553Z,91.00
2018-12-21T11:36:34.763Z,91.40
2018-12-21T11:39:03.438Z,91.60
2018-12-21T11:41:31.561Z,91.20
2018-12-21T11:44:01.615Z,91.00
2018-12-21T11:46:31.552Z,90.80
2018-12-21T11:48:59.731Z,91.00
2018-12-21T11:51:27.964Z,91.10
2018-12-21T11:53:56.252Z,90.80
2018-12-21T11:56:24.519Z,90.40
2018-12-21T11:58:52.675Z,90.50
2018-12-21T12:01:20.811Z,90.60
2018-12-21T12:03:49.097Z,91.10
2018-12-21T12:06:17.215Z,90.90
2018-12-21T12:08:45.935Z,91.30
2018-12-21T12:11:14.051Z,90.90
2018-12-21T12:13:42.211Z,91.30
2018-12-21T12:16:10.969Z,91.00
2018-12-21T12:18:39.128Z,91.20
2018-12-21T12:21:07.263Z,91.20
2018-12-21T12:23:35.410Z,91.00
2018-12-21T12:26:03.721Z,91.10
2018-12-21T12:28:31.888Z,91.50
2018-12-21T12:31:04.533Z,91.40
2018-12-21T12:33:32.672Z,91.50
2018-12-21T12:36:00.881Z,91.90
2018-12-21T12:38:29.065Z,92.10
2018-12-21T12:40:57.184Z,92.40
2018-12-21T12:43:29.792Z,92.50
2018-12-21T12:45:57.984Z,92.30
2018-12-21T12:48:26.087Z,92.40
2018-12-21T12:50:54.285Z,92.60
2018-12-21T12:53:22.454Z,92.80
2018-12-21T12:55:50.857Z,92.60
2018-12-21T12:58:18.977Z,92.60
2018-12-21T13:00:47.175Z,92.60
2018-12-21T13:03:15.431Z,92.60
2018-12-21T13:05:43.715Z,92.60
2018-12-21T13:08:11.854Z,92.70
2018-12-21T13:10:41.081Z,92.70
2018-12-21T13:13:09.847Z,92.70
2018-12-21T13:15:38.137Z,92.60
2018-12-21T13:18:06.575Z,92.90
2018-12-21T13:20:34.844Z,92.80
2018-12-21T13:23:02.994Z,92.70
2018-12-21T13:25:32.013Z,92.80
2018-12-21T13:28:00.134Z,93.00
2018-12-21T13:30:28.264Z,93.00
2018-12-21T13:32:56.510Z,93.00
2018-12-21T13:35:24.714Z,93.10
2018-12-21T13:37:53.092Z,93.10
2018-12-21T13:40:21.226Z,93.40
2018-12-21T13:42:49.447Z,93.30
2018-12-21T13:45:17.746Z,93.30
2018-12-21T13:47:45.928Z,93.60
2018-12-21T13:50:15.191Z,93.80
2018-12-21T13:52:43.387Z,93.90
2018-12-21T13:55:20.015Z,93.90
2018-12-21T13:57:41.746Z,93.70
2018-12-21T14:00:10.808Z,94.10
2018-12-21T14:02:39.046Z,94.30
2018-12-21T14:05:07.813Z,94.40
2018-12-21T14:07:35.987Z,94.50
2018-12-21T14:10:07.125Z,94.10
2018-12-21T14:12:35.476Z,94.10
2018-12-21T14:15:03.884Z,94.40
2018-12-21T14:17:32.201Z,94.70
2018-12-21T14:20:00.361Z,95.00
2018-12-21T14:22:28.626Z,94.80
2018-12-21T14:24:56.868Z,95.00
2018-12-21T14:27:25.080Z,95.00
2018-12-21T14:29:53.188Z,95.10
2018-12-21T14:32:21.406Z,95.30
2018-12-21T14:34:49.633Z,95.50
2018-12-21T14:37:17.816Z,95.50
2018-12-21T14:39:46.008Z,95.60
2018-12-21T14:42:14.361Z,95.70
2018-12-21T14:44:42.777Z,95.00
2018-12-21T14:47:11.175Z,94.60
2018-12-21T14:49:39.471Z,94.60
2018-12-21T14:52:07.962Z,94.50
2018-12-21T14:54:36.323Z,94.30
2018-12-21T14:57:11.263Z,94.20
2018-12-21T14:59:39.524Z,94.30
2018-12-21T15:02:08.061Z,94.30
2018-12-21T15:04:36.194Z,94.20
2018-12-21T15:07:04.443Z,94.30
2018-12-21T15:09:32.736Z,94.40
2018-12-21T15:12:00.980Z,94.70
2018-12-21T15:14:29.266Z,94.50
2018-12-21T15:16:57.465Z,94.20
2018-12-21T15:19:25.843Z,94.00
2018-12-21T15:21:54.076Z,94.00
2018-12-21T15:24:22.319Z,93.80
2018-12-21T15:26:50.472Z,93.80
2018-12-21T15:29:18.686Z,93.80
2018-12-21T15:31:46.958Z,93.90
2018-12-21T15:34:15.103Z,94.00
2018-12-21T15:36:43.277Z,93.80
2018-12-21T15:39:11.433Z,93.60
2018-12-21T15:41:39.652Z,93.70
2018-12-21T15:44:07.785Z,93.60
2018-12-21T15:46:35.935Z,93.80
2018-12-21T15:49:04.161Z,93.40
2018-12-21T15:51:32.332Z,93.40
2018-12-21T15:54:00.484Z,93.00
2018-12-21T15:56:28.684Z,92.70
2018-12-21T15:58:57.650Z,92.80
2018-12-21T16:01:25.833Z,92.60
2018-12-21T16:03:53.960Z,92.60
2018-12-21T16:06:22.178Z,92.50
2018-12-21T16:08:50.332Z,92.60
2018-12-21T16:11:18.637Z,92.60
2018-12-21T16:13:46.852Z,92.60
2018-12-21T16:16:14.992Z,92.90
2018-12-21T16:18:43.227Z,92.50
2018-12-21T16:21:11.458Z,92.40
2018-12-21T16:23:39.613Z,92.20
2018-12-21T16:26:07.746Z,91.90
2018-12-21T16:28:35.925Z,91.80
2018-12-21T16:31:04.160Z,91.80
2018-12-21T16:33:32.331Z,91.80
2018-12-21T16:36:00.480Z,91.50
2018-12-21T16:38:28.672Z,91.80
2018-12-21T16:40:56.808Z,91.90
2018-12-21T16:43:25.098Z,92.00
2018-12-21T16:45:53.284Z,92.00
2018-12-21T16:48:21.517Z,91.90
2018-12-21T16:50:49.703Z,91.80
2018-12-21T16:53:17.945Z,91.90
2018-12-21T16:55:46.189Z,91.60
2018-12-21T16:58:14.430Z,91.60
2018-12-21T17:00:42.725Z,91.50
2018-12-21T17:03:15.623Z,91.60
2018-12-21T17:05:41.166Z,91.80
2018-12-21T17:08:09.365Z,91.80
2018-12-21T17:10:37.680Z,91.80
2018-12-21T17:13:06.072Z,91.50
2018-12-21T17:15:34.264Z,91.60
2018-12-21T17:18:02.576Z,91.40
2018-12-21T17:20:30.729Z,91.10
2018-12-21T17:23:00.781Z,91.30
2018-12-21T17:25:29.500Z,91.40
2018-12-21T17:27:57.677Z,91.40
2018-12-21T17:30:25.878Z,91.50
2018-12-21T17:32:54.043Z,91.50
2018-12-21T17:35:22.369Z,91.60
2018-12-21T17:37:50.578Z,91.60
2018-12-21T17:40:18.715Z,91.90
2018-12-21T17:42:46.975Z,92.10
2018-12-21T17:45:15.232Z,92.10
2018-12-21T17:47:43.391Z,92.20
2018-12-21T17:50:11.729Z,91.90
2018-12-21T17:52:39.956Z,92.10
2018-12-21T17:55:09.348Z,92.10
2018-12-21T17:57:37.480Z,92.10
2018-12-21T18:00:14.183Z,92.10
2018-12-21T18:02:43.012Z,92.00
2018-12-21T18:05:11.266Z,92.10
2018-12-21T18:07:39.460Z,92.10
2018-12-21T18:10:09.482Z,91.90
2018-12-21T18:12:37.722Z,91.70
2018-12-21T18:15:07.445Z,91.60
2018-12-21T18:17:35.724Z,91.90
2018-12-21T18:20:05.162Z,91.70
2018-12-21T18:22:33.487Z,91.40
2018-12-21T18:25:04.921Z,91.20
2018-12-21T18:27:35.371Z,91.10
2018-12-21T18:30:05.439Z,90.80
2018-12-21T18:32:37.207Z,90.80
2018-12-21T18:35:09.269Z,90.90
2018-12-21T18:37:44.291Z,91.00
2018-12-21T18:40:12.648Z,91.10
2018-12-21T18:42:41.024Z,91.00
2018-12-21T18:45:09.465Z,91.20
2018-12-21T18:47:37.621Z,91.20
2018-12-21T18:50:06.029Z,91.30
2018-12-21T18:52:34.190Z,91.40
2018-12-21T18:55:02.550Z,91.10
2018-12-21T18:57:30.715Z,91.00
2018-12-21T18:59:59.552Z,91.30
2018-12-21T19:02:27.766Z,91.50
2018-12-21T19:04:56.013Z,91.60
2018-12-21T19:07:24.220Z,91.10
2018-12-21T19:09:52.580Z,90.70
2018-12-21T19:12:20.769Z,90.70
2018-12-21T19:14:49.012Z,91.00
2018-12-21T19:17:17.258Z,91.10
2018-12-21T19:19:45.594Z,91.20
2018-12-21T19:22:13.844Z,91.30
2018-12-21T19:24:42.078Z,91.00
2018-12-21T19:27:10.250Z,90.70
2018-12-21T19:29:38.471Z,90.50
2018-12-21T19:32:06.641Z,90.40
2018-12-21T19:34:34.835Z,90.30
2018-12-21T19:37:03.087Z,90.60
2018-12-21T19:39:31.284Z,90.60
2018-12-21T19:41:59.431Z,90.50
2018-12-21T19:44:27.585Z,90.60
2018-12-21T19:46:55.815Z,90.50
2018-12-21T19:49:23.984Z,90.40
2018-12-21T19:51:52.144Z,90.30
2018-12-21T19:54:22.186Z,90.20
2018-12-21T19:57:04.176Z,90.40
2018-12-21T19:59:27.086Z,90.20
2018-12-21T20:01:55.241Z,90.00
2018-12-21T20:04:23.413Z,90.10
2018-12-21T20:06:51.631Z,90.10
2018-12-21T20:09:19.799Z,90.10
2018-12-21T20:11:47.986Z,90.10
2018-12-21T20:14:16.160Z,89.80
2018-12-21T20:16:44.348Z,89.50
2018-12-21T20:19:12.631Z,89.00
2018-12-21T20:21:40.808Z,88.60
2018-12-21T20:24:09.014Z,88.90
2018-12-21T20:26:37.310Z,88.40
2018-12-21T20:29:05.538Z,88.10
2018-12-21T20:31:33.725Z,88.60
2018-12-21T20:34:02.000Z,88.70
2018-12-21T20:36:30.180Z,89.00
2018-12-21T20:38:58.448Z,89.00
2018-12-21T20:41:26.933Z,90.00
2018-12-21T20:43:55.161Z,90.60
2018-12-21T20:46:23.334Z,91.20
2018-12-21T20:48:51.488Z,91.90
2018-12-21T20:51:19.668Z,92.10
2018-12-21T20:53:47.962Z,92.00
2018-12-21T20:56:16.286Z,92.30
2018-12-21T20:58:48.182Z,92.60
2018-12-21T21:01:16.548Z,92.60
2018-12-21T21:03:44.692Z,92.80
2018-12-21T21:06:12.895Z,93.00
2018-12-21T21:08:41.067Z,93.10
2018-12-21T21:11:09.460Z,93.00
2018-12-21T21:13:37.665Z,93.00
2018-12-21T21:16:05.903Z,92.90
2018-12-21T21:18:34.072Z,92.90
2018-12-21T21:21:02.706Z,92.70
2018-12-21T21:23:31.009Z,92.70
2018-12-21T21:25:59.189Z,92.50
2018-12-21T21:28:27.324Z,92.50
2018-12-21T21:30:55.508Z,92.40
2018-12-21T21:33:23.686Z,92.50
2018-12-21T21:35:51.994Z,92.40
2018-12-21T21:38:20.199Z,92.40
2018-12-21T21:40:54.946Z,92.40
2018-12-21T21:43:23.128Z,92.50
2018-12-21T21:45:51.388Z,92.60
2018-12-21T21:48:19.697Z,92.60
2018-12-21T21:50:47.944Z,92.40
2018-12-21T21:53:16.224Z,92.40
2018-12-21T21:55:44.464Z,92.60
2018-12-21T21:58:12.722Z,92.60
2018-12-21T22:00:40.951Z,93.00
2018-12-21T22:03:09.195Z,93.00
2018-12-21T22:05:37.520Z,93.50
2018-12-21T22:08:36.764Z,93.50
2018-12-21T22:11:05.078Z,93.80
2018-12-21T22:13:33.236Z,93.90
2018-12-21T22:16:01.547Z,93.80
2018-12-21T22:18:29.795Z,93.70
2018-12-21T22:20:57.972Z,94.00
2018-12-21T22:23:26.256Z,93.80
2018-12-21T22:25:54.424Z,93.80
2018-12-21T22:28:22.643Z,94.00
2018-12-21T22:30:50.903Z,94.30
2018-12-21T22:33:19.048Z,94.60
2018-12-21T22:35:47.429Z,94.50
2018-12-21T22:38:15.665Z,94.70
2018-12-21T22:40:43.903Z,94.60
2018-12-21T22:43:12.051Z,94.60
2018-12-21T22:45:40.278Z,94.70
2018-12-21T22:48:08.605Z,94.90
2018-12-21T22:50:36.841Z,95.00
2018-12-21T22:53:04.992Z,94.90
2018-12-21T22:55:33.123Z,95.10
2018-12-21T22:58:01.325Z,95.20
2018-12-21T23:00:33.652Z,95.40
2018-12-21T23:03:01.919Z,95.30
2018-12-21T23:05:30.124Z,95.20
2018-12-21T23:08:05.083Z,95.40
2018-12-21T23:10:33.312Z,95.90
2018-12-21T23:13:01.483Z,96.20
2018-12-21T23:15:29.771Z,96.20
2018-12-21T23:17:58.444Z,96.30
2018-12-21T23:20:26.899Z,96.10
2018-12-21T23:22:55.054Z,96.20
2018-12-21T23:25:23.311Z,96.20
2018-12-21T23:27:51.488Z,96.60
2018-12-21T23:30:19.624Z,96.60
2018-12-21T23:32:47.839Z,96.70
2018-12-21T23:35:15.962Z,96.90
2018-12-21T23:37:44.188Z,96.80
2018-12-21T23:40:12.493Z,96.90
2018-12-21T23:42:40.625Z,97.10
2018-12-21T23:45:09.001Z,97.20
2018-12-21T23:47:37.151Z,97.30
2018-12-21T23:50:06.322Z,97.50
2018-12-21T23:52:34.570Z,97.50
2018-12-21T23:55:02.778Z,97.60
2018-12-21T23:57:31.228Z,97.70
2018-12-21T23:59:59.443Z,97.80
